createdAt,value
2023-03-23T15:59:09.478Z,14.44
2023-03-23T16:01:37.727Z,14.42
2023-03-23T16:04:22.424Z,14.40
2023-03-23T16:06:51.924Z,14.58
2023-03-23T16:09:20.649Z,14.64
2023-03-23T16:11:47.385Z,14.72
2023-03-23T16:14:14.162Z,14.63
2023-03-23T16:16:50.835Z,14.60
2023-03-23T16:19:20.271Z,14.57
2023-03-23T16:21:46.960Z,14.57
2023-03-23T16:24:13.464Z,14.51
2023-03-23T16:26:40.770Z,14.63
2023-03-23T16:29:22.312Z,14.53
2023-03-23T16:31:55.347Z,14.52
2023-03-23T16:34:21.848Z,14.45
2023-03-23T16:36:48.351Z,14.42
2023-03-23T16:39:18.942Z,14.28
2023-03-23T16:41:45.713Z,14.30
2023-03-23T16:44:12.591Z,14.28
2023-03-23T16:46:39.558Z,14.19
2023-03-23T16:49:06.020Z,14.07
2023-03-23T16:51:32.660Z,14.14
2023-03-23T16:53:59.169Z,14.04
2023-03-23T16:56:25.782Z,14.06
2023-03-23T16:58:52.224Z,14.08
2023-03-23T17:01:19.732Z,13.95
2023-03-23T17:03:46.282Z,13.91
2023-03-23T17:06:12.962Z,13.88
2023-03-23T17:08:39.414Z,13.95
2023-03-23T17:11:06.044Z,13.87
2023-03-23T17:13:32.850Z,13.89
2023-03-23T17:15:59.305Z,13.83
2023-03-23T17:18:25.958Z,13.78
2023-03-23T17:20:53.502Z,13.75
2023-03-23T17:23:20.003Z,13.68
2023-03-23T17:25:47.569Z,13.63
2023-03-23T17:28:14.453Z,13.60
2023-03-23T17:30:42.581Z,13.59
2023-03-23T17:33:09.543Z,13.54
2023-03-23T17:35:36.202Z,13.52
2023-03-23T17:38:02.733Z,13.50
2023-03-23T17:40:29.245Z,13.48
2023-03-23T17:42:55.817Z,13.40
2023-03-23T17:45:22.300Z,13.33
2023-03-23T17:47:48.714Z,13.31
2023-03-23T17:50:15.453Z,13.26
2023-03-23T17:52:43.410Z,13.18
2023-03-23T17:55:11.064Z,13.22
2023-03-23T17:57:37.666Z,13.15
2023-03-23T18:00:08.565Z,13.12
2023-03-23T18:02:36.904Z,13.06
2023-03-23T18:05:03.769Z,12.98
2023-03-23T18:07:30.165Z,12.94
2023-03-23T18:10:00.731Z,12.90
2023-03-23T18:12:27.523Z,12.87
2023-03-23T18:14:58.020Z,12.76
2023-03-23T18:17:24.732Z,12.68
2023-03-23T18:19:51.242Z,12.65
2023-03-23T18:22:17.788Z,12.64
2023-03-23T18:24:44.287Z,12.60
2023-03-23T18:27:10.836Z,12.57
2023-03-23T18:29:37.290Z,12.50
2023-03-23T18:32:03.990Z,12.41
2023-03-23T18:34:31.987Z,12.30
2023-03-23T18:36:58.443Z,12.22
2023-03-23T18:39:24.932Z,12.16
2023-03-23T18:41:51.471Z,12.15
2023-03-23T18:44:17.882Z,12.06
2023-03-23T18:46:44.289Z,12.04
2023-03-23T18:49:10.699Z,12.05
2023-03-23T18:51:37.830Z,11.91
2023-03-23T18:54:04.493Z,11.87
2023-03-23T18:56:30.940Z,11.78
2023-03-23T18:58:57.481Z,11.64
2023-03-23T19:01:23.980Z,11.54
2023-03-23T19:03:50.442Z,11.43
2023-03-23T19:06:20.200Z,11.32
2023-03-23T19:08:48.339Z,11.31
2023-03-23T19:11:16.025Z,11.18
2023-03-23T19:13:53.804Z,11.17
2023-03-23T19:16:25.400Z,11.08
2023-03-23T19:18:51.877Z,11.09
2023-03-23T19:21:21.228Z,11.18
2023-03-23T19:23:51.610Z,11.03
2023-03-23T19:26:23.871Z,10.98
2023-03-23T19:31:22.658Z,10.92
2023-03-23T19:33:49.215Z,10.90
2023-03-23T19:36:18.438Z,10.87
2023-03-23T19:38:44.977Z,10.75
2023-03-23T19:41:12.128Z,10.71
2023-03-23T19:43:38.752Z,10.66
2023-03-23T19:46:05.764Z,10.66
2023-03-23T19:48:33.165Z,10.64
2023-03-23T19:50:59.599Z,10.64
2023-03-23T19:53:27.081Z,10.63
2023-03-23T19:55:53.645Z,10.64
2023-03-23T19:58:20.837Z,10.66
2023-03-23T20:00:48.684Z,10.67
2023-03-23T20:03:16.686Z,10.66
2023-03-23T20:05:44.274Z,10.64
2023-03-23T20:08:11.168Z,10.71
2023-03-23T20:10:38.656Z,10.63
2023-03-23T20:13:07.216Z,10.64
2023-03-23T20:15:34.276Z,10.57
2023-03-23T20:18:01.173Z,10.59
2023-03-23T20:20:28.633Z,10.56
2023-03-23T20:22:57.795Z,10.60
2023-03-23T20:25:25.932Z,10.63
2023-03-23T20:27:52.761Z,10.70
2023-03-23T20:30:20.122Z,10.81
2023-03-23T20:32:46.987Z,10.95
2023-03-23T20:35:14.583Z,11.16
2023-03-23T20:37:41.328Z,11.42
2023-03-23T20:40:13.112Z,11.60
2023-03-23T20:42:43.639Z,11.73
2023-03-23T20:45:12.889Z,11.96
2023-03-23T20:47:40.426Z,12.03
2023-03-23T20:50:09.013Z,12.13
2023-03-23T20:52:36.874Z,12.20
2023-03-23T20:55:06.085Z,12.27
2023-03-23T20:57:33.022Z,12.33
2023-03-23T20:59:59.686Z,12.39
2023-03-23T21:02:29.679Z,12.40
2023-03-23T21:04:58.176Z,12.49
2023-03-23T21:07:27.411Z,12.52
2023-03-23T21:09:53.972Z,12.54
2023-03-23T21:12:20.544Z,12.57
2023-03-23T21:14:47.639Z,12.56
2023-03-23T21:17:14.112Z,12.59
2023-03-23T21:19:41.363Z,12.62
2023-03-23T21:22:09.716Z,12.66
2023-03-23T21:24:37.637Z,12.70
2023-03-23T21:27:12.192Z,12.75
2023-03-23T21:29:40.053Z,12.69
2023-03-23T21:32:08.567Z,12.71
2023-03-23T21:34:35.991Z,12.72
2023-03-23T21:37:02.443Z,12.68
2023-03-23T21:39:28.990Z,12.68
2023-03-23T21:42:01.787Z,12.67
2023-03-23T21:44:30.224Z,12.67
2023-03-23T21:46:56.631Z,12.69
2023-03-23T21:49:23.109Z,12.65
2023-03-23T21:51:50.141Z,12.63
2023-03-23T21:54:17.180Z,12.63
2023-03-23T21:56:47.525Z,12.60
2023-03-23T21:59:14.222Z,12.55
2023-03-23T22:01:40.770Z,12.51
2023-03-23T22:04:19.644Z,12.52
2023-03-23T22:07:24.437Z,12.61
2023-03-23T22:09:57.461Z,12.51
2023-03-23T22:12:30.628Z,12.48
2023-03-23T22:15:11.938Z,12.45
2023-03-23T22:17:39.898Z,12.52
2023-03-23T22:23:34.558Z,12.50
2023-03-23T22:32:27.488Z,12.45
2023-03-23T22:35:21.090Z,12.42
2023-03-23T22:42:07.657Z,12.40
2023-03-23T22:45:31.684Z,12.36
2023-03-23T22:48:34.722Z,12.37
2023-03-23T22:59:21.470Z,12.42
2023-03-23T23:08:38.242Z,12.36
2023-03-23T23:21:01.318Z,12.36
2023-03-23T23:24:12.911Z,12.37
2023-03-23T23:33:58.882Z,12.34
